createdAt,value
2022-08-25T00:00:23.433Z,18.46
2022-08-25T00:02:55.152Z,18.20
2022-08-25T00:05:29.412Z,18.32
2022-08-25T00:08:01.010Z,18.27
2022-08-25T00:10:30.018Z,18.16
2022-08-25T00:13:00.402Z,18.18
2022-08-25T00:15:29.357Z,18.13
2022-08-25T00:17:58.045Z,18.08
2022-08-25T00:20:26.916Z,18.04
2022-08-25T00:22:56.274Z,17.65
2022-08-25T00:25:25.253Z,17.59
2022-08-25T00:27:53.842Z,17.95
2022-08-25T00:30:24.133Z,17.93
2022-08-25T00:32:55.313Z,17.94
2022-08-25T00:35:27.571Z,17.74
2022-08-25T00:37:56.669Z,17.82
2022-08-25T00:40:26.854Z,17.81
2022-08-25T00:42:56.192Z,17.87
2022-08-25T00:45:29.248Z,17.91
2022-08-25T00:47:59.964Z,17.88
2022-08-25T00:50:29.685Z,17.90
2022-08-25T00:53:02.027Z,17.84
2022-08-25T00:55:32.840Z,17.88
2022-08-25T00:58:06.469Z,17.88
2022-08-25T01:00:40.055Z,17.84
2022-08-25T01:03:09.083Z,17.84
2022-08-25T01:05:38.161Z,17.62
2022-08-25T01:08:09.262Z,17.79
2022-08-25T01:10:41.455Z,17.59
2022-08-25T01:13:18.190Z,17.72
2022-08-25T01:15:49.998Z,17.72
2022-08-25T01:18:18.918Z,17.70
2022-08-25T01:20:51.493Z,17.55
2022-08-25T01:23:20.290Z,17.48
2022-08-25T01:25:53.502Z,17.34
2022-08-25T01:28:22.724Z,17.55
2022-08-25T01:30:52.647Z,17.69
2022-08-25T01:33:21.778Z,17.52
2022-08-25T01:35:51.875Z,17.67
2022-08-25T01:38:21.108Z,17.66
2022-08-25T01:40:52.059Z,17.62
2022-08-25T01:43:28.747Z,17.61
2022-08-25T01:45:58.371Z,17.56
2022-08-25T01:48:27.007Z,17.57
2022-08-25T01:50:57.092Z,17.54
2022-08-25T01:53:29.566Z,17.53
2022-08-25T01:56:09.742Z,17.54
2022-08-25T01:58:41.650Z,17.55
2022-08-25T02:01:12.582Z,17.54
2022-08-25T02:03:43.947Z,17.54
2022-08-25T02:06:17.802Z,17.50
2022-08-25T02:08:46.887Z,17.52
2022-08-25T02:11:16.650Z,17.52
2022-08-25T02:13:45.418Z,17.49
2022-08-25T02:16:20.801Z,17.58
2022-08-25T02:18:49.482Z,17.63
2022-08-25T02:21:19.635Z,17.55
2022-08-25T02:23:48.386Z,17.69
2022-08-25T02:26:19.204Z,17.65
2022-08-25T02:28:48.319Z,17.63
2022-08-25T02:31:18.613Z,17.83
2022-08-25T02:33:47.215Z,17.75
2022-08-25T02:36:16.185Z,17.88
2022-08-25T02:38:46.268Z,17.92
2022-08-25T02:41:17.886Z,17.94
2022-08-25T02:43:48.234Z,17.94
2022-08-25T02:46:18.754Z,17.97
2022-08-25T02:48:48.104Z,17.98
2022-08-25T02:51:17.020Z,18.00
2022-08-25T02:53:47.486Z,18.04
2022-08-25T02:56:16.840Z,17.95
2022-08-25T02:58:46.075Z,18.05
2022-08-25T03:01:16.383Z,18.11
2022-08-25T03:03:46.636Z,18.07
2022-08-25T03:06:17.008Z,17.81
2022-08-25T03:08:47.603Z,18.06
2022-08-25T03:11:16.235Z,18.12
2022-08-25T03:13:45.075Z,18.14
2022-08-25T03:16:14.213Z,18.17
2022-08-25T03:18:43.803Z,18.20
2022-08-25T03:21:13.519Z,18.23
2022-08-25T03:23:44.895Z,18.29
2022-08-25T03:26:32.660Z,18.21
2022-08-25T03:29:05.206Z,18.27
2022-08-25T03:31:34.552Z,18.45
2022-08-25T03:34:03.330Z,18.50
2022-08-25T03:36:32.064Z,18.46
2022-08-25T03:39:00.748Z,18.57
2022-08-25T03:41:32.852Z,18.62
2022-08-25T03:44:02.117Z,18.61
2022-08-25T03:46:34.540Z,18.70
2022-08-25T03:49:04.335Z,18.74
2022-08-25T03:51:35.311Z,18.78
2022-08-25T03:54:05.428Z,18.87
2022-08-25T03:56:35.714Z,18.81
2022-08-25T03:59:09.314Z,19.03
2022-08-25T04:01:38.594Z,18.98
2022-08-25T04:04:08.922Z,19.14
2022-08-25T04:06:37.855Z,19.21
2022-08-25T04:09:06.628Z,19.12
2022-08-25T04:11:36.943Z,19.35
2022-08-25T04:14:06.143Z,19.42
2022-08-25T04:16:36.365Z,19.51
2022-08-25T04:19:09.093Z,19.59
2022-08-25T04:21:39.075Z,19.64
2022-08-25T04:24:08.822Z,19.72
2022-08-25T04:26:41.078Z,19.81
2022-08-25T04:29:11.803Z,19.74
2022-08-25T04:31:41.713Z,19.95
2022-08-25T04:34:28.497Z,19.68
2022-08-25T04:37:00.763Z,20.16
2022-08-25T04:39:29.533Z,20.25
2022-08-25T04:42:00.923Z,20.34
2022-08-25T04:44:31.167Z,20.43
2022-08-25T04:46:59.861Z,20.51
2022-08-25T04:49:28.954Z,20.59
2022-08-25T04:51:57.699Z,20.66
2022-08-25T04:54:26.507Z,20.74
2022-08-25T04:56:58.723Z,20.83
2022-08-25T04:59:30.192Z,20.93
2022-08-25T05:02:02.692Z,20.98
2022-08-25T05:04:32.795Z,21.11
2022-08-25T05:07:01.775Z,21.17
2022-08-25T05:09:32.684Z,21.26
2022-08-25T05:12:02.934Z,21.35
2022-08-25T05:14:33.769Z,21.44
2022-08-25T05:17:02.981Z,21.49
2022-08-25T05:19:31.678Z,21.59
2022-08-25T05:22:00.232Z,21.74
2022-08-25T05:24:29.808Z,21.93
2022-08-25T05:26:58.907Z,21.93
2022-08-25T05:29:27.902Z,22.14
2022-08-25T05:31:58.050Z,22.24
2022-08-25T05:34:26.865Z,22.32
2022-08-25T05:36:57.501Z,22.43
2022-08-25T05:39:26.828Z,22.49
2022-08-25T05:41:55.797Z,22.50
2022-08-25T05:44:24.402Z,22.59
2022-08-25T05:46:53.334Z,22.72
2022-08-25T05:49:23.341Z,22.68
2022-08-25T05:51:51.921Z,22.86
2022-08-25T05:54:21.140Z,22.93
2022-08-25T05:56:49.679Z,22.91
2022-08-25T05:59:18.840Z,23.10
2022-08-25T06:02:04.758Z,23.12
2022-08-25T06:04:36.584Z,23.26
2022-08-25T06:07:07.110Z,23.34
2022-08-25T06:09:35.754Z,23.41
2022-08-25T06:12:04.906Z,23.47
2022-08-25T06:14:36.285Z,23.55
2022-08-25T06:17:05.948Z,23.57
2022-08-25T06:19:37.058Z,23.68
2022-08-25T06:22:08.367Z,23.68
2022-08-25T06:24:37.199Z,23.84
2022-08-25T06:27:06.326Z,23.87
2022-08-25T06:29:35.017Z,23.99
2022-08-25T06:32:03.906Z,24.01
2022-08-25T06:34:32.740Z,24.20
2022-08-25T06:37:03.047Z,24.18
2022-08-25T06:39:31.847Z,24.36
2022-08-25T06:42:00.500Z,24.62
2022-08-25T06:44:29.555Z,24.74
2022-08-25T06:46:58.520Z,24.82
2022-08-25T06:49:30.922Z,24.97
2022-08-25T06:52:03.182Z,25.06
2022-08-25T06:54:31.868Z,25.15
2022-08-25T06:57:00.911Z,25.25
2022-08-25T06:59:32.466Z,25.34
2022-08-25T07:02:01.614Z,25.43
2022-08-25T07:04:32.290Z,25.33
2022-08-25T07:07:02.545Z,25.63
2022-08-25T07:09:31.302Z,25.75
2022-08-25T07:12:00.098Z,25.84
2022-08-25T07:14:28.732Z,26.00
2022-08-25T07:16:58.081Z,26.11
2022-08-25T07:19:30.285Z,26.19
2022-08-25T07:22:01.738Z,26.31
2022-08-25T07:24:31.841Z,26.47
2022-08-25T07:27:00.472Z,26.35
2022-08-25T07:29:33.261Z,26.60
2022-08-25T07:32:02.648Z,26.45
2022-08-25T07:34:52.424Z,26.73
2022-08-25T07:37:45.489Z,26.79
2022-08-25T07:40:15.324Z,26.79
2022-08-25T07:42:44.133Z,26.87
2022-08-25T07:45:13.896Z,26.98
2022-08-25T07:47:44.295Z,27.11
2022-08-25T07:50:14.659Z,27.12
2022-08-25T07:52:44.873Z,27.23
2022-08-25T07:55:24.602Z,27.33
2022-08-25T07:57:56.061Z,27.42
2022-08-25T08:00:28.103Z,27.44
2022-08-25T08:02:57.217Z,27.45
2022-08-25T08:05:26.161Z,27.64
2022-08-25T08:07:54.816Z,27.69
2022-08-25T08:10:47.768Z,27.73
2022-08-25T08:13:18.348Z,27.78
2022-08-25T08:15:48.169Z,27.90
2022-08-25T08:18:17.198Z,27.91
2022-08-25T08:20:48.532Z,28.12
2022-08-25T08:23:17.760Z,28.19
2022-08-25T08:25:48.167Z,28.27
2022-08-25T08:28:17.873Z,28.23
2022-08-25T08:30:53.516Z,28.21
2022-08-25T08:33:24.450Z,28.40
2022-08-25T08:36:05.088Z,28.46
2022-08-25T08:38:34.751Z,28.50
2022-08-25T08:42:09.591Z,28.60
2022-08-25T08:44:39.608Z,28.67
2022-08-25T08:47:13.478Z,28.59
2022-08-25T08:49:48.208Z,28.85
2022-08-25T08:52:20.612Z,28.91
2022-08-25T08:54:52.004Z,28.82
2022-08-25T08:57:27.199Z,29.04
2022-08-25T08:59:59.401Z,29.03
2022-08-25T09:02:39.485Z,29.08
2022-08-25T09:05:21.023Z,29.25
2022-08-25T09:07:54.576Z,29.30
2022-08-25T09:10:24.949Z,29.35
2022-08-25T09:13:00.859Z,29.36
2022-08-25T09:15:51.700Z,29.43
2022-08-25T09:18:29.138Z,29.39
2022-08-25T09:21:05.483Z,29.70
2022-08-25T09:23:43.548Z,29.73
2022-08-25T09:26:23.061Z,29.82
2022-08-25T09:28:56.434Z,29.76
2022-08-25T09:31:29.843Z,30.01
2022-08-25T09:34:00.117Z,30.01
2022-08-25T09:36:29.037Z,30.04
2022-08-25T09:38:57.952Z,30.08
2022-08-25T09:41:42.923Z,29.86
2022-08-25T09:44:21.241Z,29.87
2022-08-25T09:47:02.077Z,30.07
2022-08-25T09:49:37.789Z,30.15
2022-08-25T09:52:33.179Z,30.18
2022-08-25T09:55:21.749Z,30.11
2022-08-25T09:57:55.251Z,30.15
2022-08-25T10:00:28.036Z,30.03
2022-08-25T10:03:13.998Z,30.13
2022-08-25T10:06:02.502Z,30.16
2022-08-25T10:08:34.806Z,30.23
2022-08-25T10:11:08.646Z,30.33
2022-08-25T10:13:41.467Z,30.45
2022-08-25T10:16:24.124Z,30.53
2022-08-25T10:19:05.340Z,30.47
2022-08-25T10:21:34.645Z,30.46
2022-08-25T10:24:05.997Z,30.51
2022-08-25T10:26:45.820Z,30.46
2022-08-25T10:29:28.619Z,30.40
2022-08-25T10:32:01.442Z,30.54
2022-08-25T10:34:39.288Z,30.59
2022-08-25T10:37:18.530Z,30.54
2022-08-25T10:39:55.548Z,30.66
2022-08-25T10:42:37.895Z,30.56
2022-08-25T10:45:36.603Z,30.66
2022-08-25T10:48:22.832Z,30.56
2022-08-25T10:50:57.139Z,30.57
2022-08-25T10:53:30.869Z,30.44
2022-08-25T10:56:09.160Z,30.62
2022-08-25T10:58:59.883Z,30.50
2022-08-25T11:01:43.774Z,30.54
2022-08-25T11:04:17.365Z,30.55
2022-08-25T11:06:54.753Z,30.46
2022-08-25T11:09:26.838Z,30.43
2022-08-25T11:11:58.004Z,30.34
2022-08-25T11:14:34.450Z,30.33
2022-08-25T11:17:08.075Z,30.32
2022-08-25T11:19:38.915Z,30.38
2022-08-25T11:22:14.632Z,30.39
2022-08-25T11:24:58.239Z,30.35
2022-08-25T11:27:32.208Z,30.36
2022-08-25T11:30:07.203Z,30.32
2022-08-25T11:32:37.136Z,30.43
2022-08-25T11:35:12.214Z,30.46
2022-08-25T11:37:47.304Z,30.26
2022-08-25T11:40:37.261Z,30.33
2022-08-25T11:43:16.214Z,30.42
2022-08-25T11:46:03.165Z,30.46
2022-08-25T11:48:40.987Z,30.48
2022-08-25T11:51:12.624Z,30.53
2022-08-25T11:53:42.564Z,30.47
2022-08-25T11:56:12.786Z,30.33
2022-08-25T11:58:46.800Z,30.22
2022-08-25T12:02:11.233Z,30.18
2022-08-25T12:04:45.264Z,30.10
2022-08-25T12:07:22.185Z,30.07
2022-08-25T12:10:21.620Z,30.08
2022-08-25T12:13:16.107Z,30.10
2022-08-25T12:16:00.584Z,30.09
2022-08-25T12:18:51.306Z,29.99
2022-08-25T12:21:34.257Z,30.04
2022-08-25T12:24:16.293Z,30.00
2022-08-25T12:26:50.618Z,30.14
2022-08-25T12:29:27.200Z,30.29
2022-08-25T12:32:14.327Z,30.34
2022-08-25T12:34:55.201Z,30.35
2022-08-25T12:37:25.057Z,30.45
2022-08-25T12:40:02.454Z,30.63
2022-08-25T12:42:38.115Z,30.74
2022-08-25T12:45:16.638Z,30.80
2022-08-25T12:47:49.591Z,30.75
2022-08-25T12:50:40.505Z,30.57
2022-08-25T12:53:16.264Z,30.68
2022-08-25T12:55:50.455Z,30.76
2022-08-25T12:58:19.270Z,30.56
2022-08-25T13:01:04.399Z,30.40
2022-08-25T13:03:54.250Z,30.26
2022-08-25T13:06:43.715Z,30.08
2022-08-25T13:10:00.719Z,29.88
2022-08-25T13:12:34.262Z,29.84
2022-08-25T13:15:02.672Z,29.79
2022-08-25T13:17:34.127Z,29.65
2022-08-25T13:20:21.495Z,29.54
2022-08-25T13:22:57.353Z,29.41
2022-08-25T13:25:32.906Z,29.52
2022-08-25T13:28:06.626Z,29.50
2022-08-25T13:30:43.528Z,29.55
2022-08-25T13:33:20.342Z,29.57
2022-08-25T13:35:50.172Z,29.62
2022-08-25T13:38:20.221Z,29.68
2022-08-25T13:40:51.921Z,29.72
2022-08-25T13:43:23.082Z,29.90
2022-08-25T13:45:56.846Z,29.98
2022-08-25T13:48:34.861Z,30.10
2022-08-25T13:51:23.139Z,30.08
2022-08-25T13:53:55.119Z,30.20
2022-08-25T13:56:35.617Z,30.30
2022-08-25T13:59:21.673Z,30.30
2022-08-25T14:01:51.329Z,30.44
2022-08-25T14:04:51.337Z,30.47
2022-08-25T14:07:33.774Z,30.48
2022-08-25T14:10:07.778Z,30.48
2022-08-25T14:12:42.115Z,30.43
2022-08-25T14:15:33.381Z,30.45
2022-08-25T14:18:05.290Z,30.18
2022-08-25T14:20:34.817Z,30.23
2022-08-25T14:23:09.697Z,30.20
2022-08-25T14:25:42.202Z,30.01
2022-08-25T14:28:14.059Z,29.86
2022-08-25T14:30:47.399Z,29.93
2022-08-25T14:33:17.876Z,29.90
2022-08-25T14:35:50.122Z,29.78
2022-08-25T14:38:20.777Z,29.71
2022-08-25T14:40:50.322Z,29.69
2022-08-25T14:43:23.778Z,29.62
2022-08-25T14:45:54.549Z,29.57
2022-08-25T14:48:27.715Z,29.44
2022-08-25T14:50:58.253Z,29.44
2022-08-25T14:53:29.529Z,29.40
2022-08-25T14:55:59.110Z,29.32
2022-08-25T14:58:33.980Z,29.26
2022-08-25T15:01:06.520Z,29.21
2022-08-25T15:03:38.500Z,29.20
2022-08-25T15:06:07.802Z,29.15
2022-08-25T15:08:57.486Z,29.01
2022-08-25T15:11:26.409Z,29.02
2022-08-25T15:13:58.540Z,28.97
2022-08-25T15:16:33.833Z,28.92
2022-08-25T15:19:06.600Z,28.83
2022-08-25T15:21:36.751Z,28.73
2022-08-25T15:24:06.074Z,28.71
2022-08-25T15:26:41.342Z,28.68
2022-08-25T15:29:10.064Z,28.59
2022-08-25T15:31:40.728Z,28.41
2022-08-25T15:34:11.816Z,28.39
2022-08-25T15:36:40.766Z,28.32
2022-08-25T15:39:11.649Z,28.22
2022-08-25T15:41:40.577Z,28.12
2022-08-25T15:44:12.606Z,28.04
2022-08-25T15:46:46.911Z,27.93
2022-08-25T15:49:20.688Z,27.84
2022-08-25T15:51:52.575Z,27.74
2022-08-25T15:54:21.688Z,27.65
2022-08-25T15:56:50.255Z,27.49
2022-08-25T15:59:21.790Z,27.42
2022-08-25T16:01:54.904Z,27.34
2022-08-25T16:04:24.196Z,27.21
2022-08-25T16:06:53.624Z,27.03
2022-08-25T16:09:24.456Z,27.02
2022-08-25T16:11:55.922Z,26.91
2022-08-25T16:14:27.627Z,26.79
2022-08-25T16:16:59.694Z,26.67
2022-08-25T16:19:29.054Z,26.51
2022-08-25T16:21:58.068Z,26.48
2022-08-25T16:24:26.895Z,26.39
2022-08-25T16:27:00.421Z,26.31
2022-08-25T16:29:40.874Z,26.22
2022-08-25T16:32:13.452Z,26.16
2022-08-25T16:34:42.858Z,26.12
2022-08-25T16:37:15.858Z,26.05
2022-08-25T16:39:46.158Z,25.98
2022-08-25T16:42:15.194Z,25.88
2022-08-25T16:44:43.956Z,25.86
2022-08-25T16:47:17.663Z,25.80
2022-08-25T16:49:49.086Z,25.69
2022-08-25T16:52:35.091Z,25.67
2022-08-25T16:55:19.520Z,25.61
2022-08-25T16:57:49.942Z,25.52
2022-08-25T17:00:22.076Z,25.42
2022-08-25T17:02:54.437Z,25.28
2022-08-25T17:05:23.091Z,25.35
2022-08-25T17:08:05.759Z,25.31
2022-08-25T17:10:37.848Z,25.26
2022-08-25T17:13:09.731Z,25.21
2022-08-25T17:15:41.773Z,24.86
2022-08-25T17:18:12.859Z,25.12
2022-08-25T17:20:43.353Z,25.12
2022-08-25T17:23:12.980Z,24.95
2022-08-25T17:25:43.633Z,25.15
2022-08-25T17:28:13.529Z,24.99
2022-08-25T17:30:45.894Z,24.98
2022-08-25T17:33:16.827Z,25.01
2022-08-25T17:35:54.074Z,24.88
2022-08-25T17:38:26.916Z,24.87
2022-08-25T17:40:59.178Z,24.84
2022-08-25T17:43:28.670Z,24.79
2022-08-25T17:45:58.172Z,24.64
2022-08-25T17:48:29.103Z,24.65
2022-08-25T17:51:02.314Z,24.60
2022-08-25T17:53:31.645Z,24.51
2022-08-25T17:56:01.982Z,24.45
2022-08-25T17:58:32.768Z,24.28
2022-08-25T18:01:02.275Z,24.30
2022-08-25T18:03:32.560Z,24.12
2022-08-25T18:06:01.508Z,24.18
2022-08-25T18:08:35.371Z,24.09
2022-08-25T18:11:04.998Z,24.06
2022-08-25T18:13:33.822Z,23.98
2022-08-25T18:16:02.834Z,23.90
2022-08-25T18:18:34.526Z,23.88
2022-08-25T18:21:07.080Z,23.74
2022-08-25T18:23:35.933Z,23.78
2022-08-25T18:26:04.655Z,23.59
2022-08-25T18:28:35.686Z,23.72
2022-08-25T18:31:04.522Z,23.63
2022-08-25T18:33:34.865Z,23.61
2022-08-25T18:36:04.358Z,23.61
2022-08-25T18:38:50.514Z,23.51
2022-08-25T18:41:27.316Z,23.55
2022-08-25T18:43:57.057Z,23.54
2022-08-25T18:46:26.646Z,23.50
2022-08-25T18:48:56.888Z,23.50
2022-08-25T18:51:25.541Z,23.47
2022-08-25T18:53:54.683Z,23.45
2022-08-25T18:56:28.259Z,23.43
2022-08-25T18:58:57.507Z,23.38
2022-08-25T19:01:26.452Z,23.41
2022-08-25T19:03:58.932Z,23.42
2022-08-25T19:06:27.613Z,23.10
2022-08-25T19:08:56.254Z,23.43
2022-08-25T19:11:25.793Z,23.44
2022-08-25T19:13:55.216Z,23.48
2022-08-25T19:16:34.608Z,23.41
2022-08-25T19:19:08.438Z,23.33
2022-08-25T19:21:38.732Z,23.05
2022-08-25T19:24:08.394Z,23.04
2022-08-25T19:26:37.503Z,22.67
2022-08-25T19:29:09.468Z,22.81
2022-08-25T19:31:39.225Z,22.67
2022-08-25T19:34:11.173Z,22.52
2022-08-25T19:36:42.530Z,22.48
2022-08-25T19:39:12.337Z,22.49
2022-08-25T19:41:42.203Z,22.48
2022-08-25T19:44:12.195Z,22.31
2022-08-25T19:46:43.382Z,22.34
2022-08-25T19:49:16.913Z,22.27
2022-08-25T19:51:50.459Z,22.17
2022-08-25T19:54:22.624Z,22.21
2022-08-25T19:56:54.825Z,22.19
2022-08-25T19:59:40.792Z,21.90
2022-08-25T20:02:15.470Z,22.06
2022-08-25T20:04:49.570Z,22.02
2022-08-25T20:07:20.353Z,21.96
2022-08-25T20:09:49.060Z,21.82
2022-08-25T20:12:18.252Z,21.88
2022-08-25T20:14:47.235Z,21.86
2022-08-25T20:17:24.712Z,21.56
2022-08-25T20:19:58.453Z,21.79
2022-08-25T20:22:28.225Z,21.78
2022-08-25T20:24:58.363Z,21.75
2022-08-25T20:27:30.048Z,21.79
2022-08-25T20:29:59.898Z,21.79
2022-08-25T20:32:33.894Z,21.73
2022-08-25T20:35:05.601Z,21.76
2022-08-25T20:37:37.974Z,21.71
2022-08-25T20:40:08.507Z,21.57
2022-08-25T20:42:41.336Z,21.75
2022-08-25T20:45:13.571Z,21.77
2022-08-25T20:47:44.382Z,21.75
2022-08-25T20:50:15.047Z,21.77
2022-08-25T20:52:44.066Z,21.69
2022-08-25T20:55:13.935Z,21.62
2022-08-25T20:57:42.709Z,21.45
2022-08-25T21:00:12.990Z,21.43
2022-08-25T21:02:41.787Z,21.36
2022-08-25T21:05:10.740Z,21.33
2022-08-25T21:07:41.654Z,21.23
2022-08-25T21:10:14.240Z,21.02
2022-08-25T21:12:45.244Z,21.02
2022-08-25T21:15:18.127Z,20.84
2022-08-25T21:17:50.882Z,20.78
2022-08-25T21:20:19.652Z,20.69
2022-08-25T21:22:49.898Z,20.70
2022-08-25T21:25:19.955Z,20.63
2022-08-25T21:27:49.330Z,20.59
2022-08-25T21:30:19.314Z,20.54
2022-08-25T21:32:53.658Z,20.51
2022-08-25T21:35:23.603Z,20.44
2022-08-25T21:37:54.864Z,20.42
2022-08-25T21:40:24.793Z,20.44
2022-08-25T21:42:53.633Z,20.34
2022-08-25T21:45:22.419Z,20.09
2022-08-25T21:47:51.799Z,20.10
2022-08-25T21:50:21.385Z,20.31
2022-08-25T21:52:54.314Z,19.92
2022-08-25T21:55:25.143Z,20.09
2022-08-25T21:57:54.889Z,20.17
2022-08-25T22:00:24.094Z,20.12
2022-08-25T22:02:53.741Z,20.08
2022-08-25T22:05:22.497Z,20.05
2022-08-25T22:07:51.216Z,20.08
2022-08-25T22:10:21.058Z,20.07
2022-08-25T22:12:53.072Z,20.13
2022-08-25T22:15:23.416Z,20.13
2022-08-25T22:17:52.342Z,20.12
2022-08-25T22:20:21.149Z,20.10
2022-08-25T22:22:49.719Z,20.08
2022-08-25T22:25:18.832Z,20.03
2022-08-25T22:27:48.223Z,19.93
2022-08-25T22:30:29.462Z,19.93
2022-08-25T22:33:01.556Z,19.87
2022-08-25T22:35:33.252Z,19.79
2022-08-25T22:38:02.253Z,19.73
2022-08-25T22:40:36.798Z,19.56
2022-08-25T22:43:05.219Z,19.61
2022-08-25T22:45:36.331Z,19.44
2022-08-25T22:48:06.131Z,19.55
2022-08-25T22:50:36.231Z,19.55
2022-08-25T22:53:05.119Z,19.54
2022-08-25T22:55:33.753Z,19.53
2022-08-25T22:58:02.567Z,19.53
2022-08-25T23:00:31.709Z,19.53
2022-08-25T23:03:01.912Z,19.50
2022-08-25T23:05:30.655Z,19.45
2022-08-25T23:08:00.006Z,19.39
2022-08-25T23:10:28.758Z,19.43
2022-08-25T23:12:57.903Z,19.43
2022-08-25T23:15:26.816Z,19.49
2022-08-25T23:17:55.468Z,19.30
2022-08-25T23:20:44.994Z,19.38
2022-08-25T23:23:14.239Z,19.46
2022-08-25T23:25:42.928Z,19.32
2022-08-25T23:28:11.560Z,19.31
2022-08-25T23:30:40.396Z,19.26
2022-08-25T23:33:18.839Z,19.21
2022-08-25T23:35:59.168Z,19.16
2022-08-25T23:38:31.004Z,19.12
2022-08-25T23:40:59.890Z,19.07
2022-08-25T23:43:28.491Z,18.95
2022-08-25T23:45:57.188Z,18.99
2022-08-25T23:48:26.522Z,18.86
2022-08-25T23:50:56.559Z,18.89
2022-08-25T23:53:26.349Z,18.79
2022-08-25T23:55:55.767Z,18.74
2022-08-25T23:58:25.830Z,18.68
